Time;durP1;ratioP1;P1;durP2;ratioP2;P2;SDS_P1;SDS_P2;PMS_P1;PMS_P2;Temp;Humidity;BMP_temperature;BMP_pressure;BME280_temperature;BME280_humidity;BME280_pressure;Samples;Min_cycle;Max_cycle;Signal;HPM_P1;HPM_P2
2023/03/01 00:01:05;;;;;;;302.20;121.03;;;153.60;2252.80;;;;;;5071543;28;20093;-69
2023/03/01 00:03:32;;;;;;;355.25;129.25;;;128.70;2252.80;;;;;;5071544;28;20490;-71
2023/03/01 00:05:58;;;;;;;271.48;126.22;;;128.80;2252.80;;;;;;5071338;28;20112;-75
2023/03/01 00:08:24;;;;;;;242.30;112.10;;;128.90;2252.80;;;;;;5071427;28;20074;-72
2023/03/01 00:11:00;;;;;;;359.40;140.68;;;153.60;2252.80;;;;;;5071890;28;20013;-70
2023/03/01 00:13:26;;;;;;;209.57;104.90;;;128.90;2252.80;;;;;;5071484;28;20037;-75
2023/03/01 00:15:51;;;;;;;228.40;109.28;;;153.60;2252.80;;;;;;5071641;28;20028;-74
2023/03/01 00:18:17;;;;;;;418.52;137.77;;;153.60;2252.80;;;;;;5071315;28;20062;-76
2023/03/01 00:20:51;;;;;;;340.73;132.18;;;128.90;2252.80;;;;;;5071414;28;20028;-69
2023/03/01 00:23:16;;;;;;;270.70;109.03;;;128.70;2252.80;;;;;;5071075;28;20077;-68
2023/03/01 00:25:43;;;;;;;181.07;92.35;;;128.90;2252.80;;;;;;5071447;28;20020;-72
2023/03/01 00:28:09;;;;;;;270.15;112.90;;;153.60;2252.80;;;;;;5068400;28;20024;-68
2023/03/01 00:30:34;;;;;;;162.18;83.82;;;153.70;2252.80;;;;;;5071296;28;20025;-68
2023/03/01 00:33:00;;;;;;;152.25;74.97;;;153.60;2252.80;;;;;;5091929;28;20493;-72
2023/03/01 00:35:26;;;;;;;153.35;77.68;;;153.70;2252.80;;;;;;5091114;28;20378;-71
2023/03/01 00:37:57;;;;;;;121.85;61.28;;;153.60;2252.80;;;;;;5091047;28;20095;-69
2023/03/01 00:40:24;;;;;;;90.63;45.40;;;153.70;2252.80;;;;;;5091277;28;20024;-66
2023/03/01 00:42:50;;;;;;;120.18;67.10;;;153.80;2252.80;;;;;;5090949;28;20398;-71
2023/03/01 00:45:16;;;;;;;120.90;64.18;;;153.80;2252.80;;;;;;5090767;28;20038;-67
2023/03/01 00:47:42;;;;;;;127.63;67.90;;;153.60;2252.80;;;;;;5091117;28;20023;-70
2023/03/01 00:50:08;;;;;;;131.68;68.60;;;153.80;2252.80;;;;;;5091103;28;20103;-73
2023/03/01 00:52:34;;;;;;;127.38;69.32;;;153.70;2252.80;;;;;;5090619;28;20027;-70
2023/03/01 00:55:00;;;;;;;113.78;63.35;;;153.60;2252.80;;;;;;5090934;28;20028;-69
2023/03/01 00:57:25;;;;;;;127.43;63.55;;;153.70;2252.80;;;;;;5090329;28;20386;-68
2023/03/01 00:59:54;;;;;;;130.38;68.63;;;153.70;2252.80;;;;;;5090696;28;20055;-71
2023/03/01 01:02:20;;;;;;;128.13;75.32;;;153.70;2252.80;;;;;;5090744;28;20397;-70
2023/03/01 01:04:47;;;;;;;254.55;97.53;;;153.70;2252.80;;;;;;5090335;28;20017;-69
2023/03/01 01:07:14;;;;;;;153.10;70.07;;;128.80;2252.80;;;;;;5090810;28;20070;-69
2023/03/01 01:09:40;;;;;;;145.05;77.13;;;128.70;2252.80;;;;;;5090466;28;20024;-71
2023/03/01 01:12:06;;;;;;;190.02;106.97;;;128.70;2252.80;;;;;;5090330;28;20027;-71
2023/03/01 01:14:31;;;;;;;163.27;89.32;;;128.70;2252.80;;;;;;5090647;28;20020;-71
2023/03/01 01:16:57;;;;;;;157.80;82.85;;;128.80;2252.80;;;;;;5090331;28;20012;-72
2023/03/01 01:19:24;;;;;;;140.07;74.25;;;128.90;2252.80;;;;;;5090470;28;20496;-74
2023/03/01 01:21:50;;;;;;;134.77;76.95;;;128.90;2252.80;;;;;;5090508;28;20117;-72
2023/03/01 01:24:16;;;;;;;182.63;104.68;;;128.90;2252.80;;;;;;5085856;28;20490;-71
2023/03/01 01:26:43;;;;;;;137.35;74.55;;;153.60;2252.80;;;;;;5070136;28;20017;-74
2023/03/01 01:29:09;;;;;;;136.95;76.28;;;153.60;2252.80;;;;;;5069722;28;20181;-73
2023/03/01 01:31:37;;;;;;;112.22;62.53;;;153.60;2252.80;;;;;;5079288;28;20047;-74
2023/03/01 01:34:05;;;;;;;122.38;65.68;;;153.70;2252.80;;;;;;5090527;28;20032;-69
2023/03/01 01:36:32;;;;;;;95.50;53.28;;;153.60;2252.80;;;;;;5091064;28;20144;-69
2023/03/01 01:38:58;;;;;;;93.68;45.67;;;153.60;2252.80;;;;;;5090197;28;20111;-72
2023/03/01 01:41:26;;;;;;;110.15;56.63;;;128.90;2252.80;;;;;;5090646;28;20070;-71
2023/03/01 01:44:24;;;;;;;98.57;55.53;;;153.60;2252.80;;;;;;5090587;28;20123;-70
2023/03/01 01:46:58;;;;;;;95.60;50.13;;;153.60;2252.80;;;;;;5090274;28;20462;-71
2023/03/01 01:49:24;;;;;;;68.22;40.33;;;128.90;2252.80;;;;;;5090230;28;20024;-70
2023/03/01 01:51:55;;;;;;;75.18;43.72;;;128.70;2252.80;;;;;;5089914;28;20023;-71
2023/03/01 01:54:29;;;;;;;66.78;35.78;;;128.90;2252.80;;;;;;5090364;28;20039;-70
2023/03/01 01:57:03;;;;;;;68.43;39.35;;;128.80;2252.80;;;;;;5090739;28;20028;-72
2023/03/01 01:59:32;;;;;;;87.72;52.22;;;128.70;2252.80;;;;;;5089931;28;20059;-69
2023/03/01 02:02:00;;;;;;;85.90;53.42;;;128.80;2252.80;;;;;;5082178;28;20367;-70
2023/03/01 02:04:26;;;;;;;83.60;43.47;;;128.90;2252.80;;;;;;5082922;28;20556;-73
2023/03/01 02:07:00;;;;;;;70.07;40.72;;;153.60;2252.80;;;;;;5090063;28;20115;-70
2023/03/01 02:09:26;;;;;;;74.85;45.10;;;128.90;2252.80;;;;;;5089744;28;20127;-70
2023/03/01 02:11:54;;;;;;;71.25;38.67;;;128.90;2252.80;;;;;;5090269;28;20103;-70
2023/03/01 02:14:19;;;;;;;76.85;44.28;;;128.90;2252.80;;;;;;5089723;28;20020;-74
2023/03/01 02:16:46;;;;;;;77.50;46.00;;;128.90;2252.80;;;;;;5089868;28;20020;-71
2023/03/01 02:19:31;;;;;;;63.17;36.25;;;153.60;2252.80;;;;;;5089524;28;20028;-69
2023/03/01 02:22:10;;;;;;;77.40;46.67;;;128.90;2252.80;;;;;;5090004;28;20020;-68
2023/03/01 02:25:18;;;;;;;89.43;55.75;;;128.80;2252.80;;;;;;5089234;28;20085;-68
2023/03/01 02:28:10;;;;;;;90.07;52.03;;;128.90;2252.80;;;;;;4994331;28;20033;-70
2023/03/01 02:30:36;;;;;;;66.73;39.47;;;128.90;2252.80;;;;;;5007141;28;20029;-71
2023/03/01 02:33:03;;;;;;;63.40;37.00;;;128.90;2252.80;;;;;;5007936;28;20033;-70
2023/03/01 02:35:37;;;;;;;84.50;46.60;;;128.90;2252.80;;;;;;5007416;28;20049;-67
2023/03/01 02:38:07;;;;;;;49.28;27.33;;;128.90;2252.80;;;;;;5007789;28;20125;-68
2023/03/01 02:40:34;;;;;;;69.00;36.38;;;128.80;2252.80;;;;;;5007538;28;20054;-68
2023/03/01 02:43:00;;;;;;;61.83;33.15;;;128.70;2252.80;;;;;;5007203;28;20126;-69
2023/03/01 02:45:27;;;;;;;77.05;44.63;;;128.70;2252.80;;;;;;5006899;28;20463;-69
2023/03/01 02:47:57;;;;;;;66.90;35.85;;;128.70;2252.80;;;;;;5007588;28;20092;-69
2023/03/01 02:50:28;;;;;;;71.28;40.08;;;128.70;2252.80;;;;;;5007162;28;20034;-68
2023/03/01 02:53:21;;;;;;;66.35;39.60;;;128.70;2252.80;;;;;;5007241;28;20026;-69
2023/03/01 02:55:48;;;;;;;49.08;27.98;;;128.70;2252.80;;;;;;5007278;28;20113;-67
2023/03/01 02:58:14;;;;;;;67.10;37.95;;;128.70;2252.80;;;;;;5007170;28;20030;-68
2023/03/01 03:00:46;;;;;;;89.97;53.70;;;128.70;2252.80;;;;;;5000010;28;20030;-72
2023/03/01 03:03:21;;;;;;;65.43;38.20;;;128.70;2252.80;;;;;;5045670;28;20501;-71
2023/03/01 03:05:48;;;;;;;48.35;27.35;;;128.80;2252.80;;;;;;5089480;28;20024;-71
2023/03/01 03:08:19;;;;;;;48.50;31.17;;;128.90;2252.80;;;;;;5089359;28;20016;-69
2023/03/01 03:10:45;;;;;;;67.95;45.25;;;128.90;2252.80;;;;;;5089414;28;20467;-70
2023/03/01 03:13:13;;;;;;;96.95;58.03;;;128.80;2252.80;;;;;;5089337;28;20115;-71
2023/03/01 03:15:40;;;;;;;77.63;44.95;;;128.80;2252.80;;;;;;5090738;28;20024;-68
2023/03/01 03:18:12;;;;;;;51.97;31.67;;;128.60;2252.80;;;;;;5092764;28;20024;-67
2023/03/01 03:20:40;;;;;;;57.03;31.80;;;128.70;2252.80;;;;;;5093709;28;20024;-68
2023/03/01 03:23:06;;;;;;;57.35;35.33;;;128.70;2252.80;;;;;;5092836;28;20043;-68
2023/03/01 03:25:31;;;;;;;50.10;27.83;;;128.60;2252.80;;;;;;5093363;28;20024;-69
2023/03/01 03:27:58;;;;;;;44.42;24.85;;;128.50;2252.80;;;;;;5092996;28;20073;-68
2023/03/01 03:30:26;;;;;;;44.95;26.65;;;128.40;2252.80;;;;;;5093070;28;20531;-68
2023/03/01 03:32:52;;;;;;;61.33;36.95;;;128.40;2252.80;;;;;;5091655;28;20177;-69
2023/03/01 03:35:24;;;;;;;49.65;28.00;;;128.50;2252.80;;;;;;5092659;28;20502;-70
2023/03/01 03:38:02;;;;;;;44.25;28.65;;;128.60;2252.80;;;;;;5092782;28;20071;-69
2023/03/01 03:40:39;;;;;;;47.85;25.75;;;128.40;2252.80;;;;;;5092595;28;20028;-69
2023/03/01 03:43:13;;;;;;;51.22;29.63;;;128.40;2252.80;;;;;;5092844;28;20024;-70
2023/03/01 03:45:39;;;;;;;52.55;32.03;;;128.50;2252.80;;;;;;5092990;28;20378;-70
2023/03/01 03:48:07;;;;;;;40.63;26.35;;;128.30;2252.80;;;;;;5092744;28;20024;-71
2023/03/01 03:50:33;;;;;;;45.80;26.55;;;128.40;2252.80;;;;;;5092621;28;20024;-69
2023/03/01 03:53:04;;;;;;;39.47;23.45;;;128.20;2252.80;;;;;;5092657;28;20024;-71
2023/03/01 03:55:30;;;;;;;35.45;19.70;;;128.40;2252.80;;;;;;5092565;28;20229;-70
2023/03/01 03:58:06;;;;;;;28.95;18.58;;;128.40;2252.80;;;;;;5092473;28;20054;-70
2023/03/01 04:00:34;;;;;;;29.25;19.42;;;128.40;2252.80;;;;;;5092504;28;20024;-69
2023/03/01 04:03:00;;;;;;;34.20;18.80;;;128.30;2252.80;;;;;;5092100;28;20046;-71
2023/03/01 04:05:27;;;;;;;28.35;16.85;;;128.40;2252.80;;;;;;5092539;28;20016;-70
2023/03/01 04:08:00;;;;;;;31.40;18.10;;;128.40;2252.80;;;;;;5092098;28;20107;-68
2023/03/01 04:10:30;;;;;;;29.35;18.85;;;128.50;2252.80;;;;;;5092544;28;20035;-70
2023/03/01 04:12:57;;;;;;;34.75;18.13;;;128.60;2252.80;;;;;;5092083;28;20090;-70
2023/03/01 04:15:24;;;;;;;26.58;16.80;;;128.50;2252.80;;;;;;5082790;28;20111;-69
2023/03/01 04:17:52;;;;;;;31.15;18.88;;;128.50;2252.80;;;;;;5088466;28;20019;-70
2023/03/01 04:20:24;;;;;;;31.27;20.30;;;128.60;2252.80;;;;;;5092230;28;20024;-70
2023/03/01 04:23:10;;;;;;;34.47;22.52;;;128.50;2252.80;;;;;;5091837;28;20520;-70
2023/03/01 04:26:02;;;;;;;31.48;20.23;;;128.30;2252.80;;;;;;5091632;28;20026;-70
2023/03/01 04:28:29;;;;;;;54.33;25.60;;;128.30;2252.80;;;;;;5087663;28;20467;-70
2023/03/01 04:30:58;;;;;;;50.70;26.92;;;128.30;2252.80;;;;;;5091308;28;20120;-70
2023/03/01 04:33:25;;;;;;;70.90;32.67;;;128.30;2252.80;;;;;;5092152;28;20111;-70
2023/03/01 04:35:51;;;;;;;55.90;29.55;;;128.30;2252.80;;;;;;5091353;28;20095;-70
2023/03/01 04:38:18;;;;;;;51.25;27.30;;;128.40;2252.80;;;;;;5091563;28;20020;-69
2023/03/01 04:40:45;;;;;;;39.83;24.42;;;128.40;2252.80;;;;;;5091812;28;20024;-70
2023/03/01 04:43:13;;;;;;;44.05;25.30;;;128.40;2252.80;;;;;;5091665;28;20471;-69
2023/03/01 04:45:38;;;;;;;47.45;24.90;;;128.40;2252.80;;;;;;5089759;28;20440;-69
2023/03/01 04:48:04;;;;;;;37.28;22.38;;;128.20;2252.80;;;;;;5091892;28;20024;-74
2023/03/01 04:50:30;;;;;;;38.42;23.25;;;128.30;2252.80;;;;;;5091475;28;20783;-74
2023/03/01 04:52:58;;;;;;;47.08;30.17;;;128.40;2252.80;;;;;;5091605;28;20039;-69
2023/03/01 04:55:27;;;;;;;45.92;25.33;;;128.30;2252.80;;;;;;5091551;28;20048;-76
2023/03/01 04:57:54;;;;;;;38.95;22.58;;;128.60;2252.80;;;;;;5091795;28;20028;-75
2023/03/01 05:00:20;;;;;;;35.13;21.63;;;128.40;2252.80;;;;;;5091375;28;20032;-69
2023/03/01 05:02:48;;;;;;;35.40;20.17;;;128.50;2252.80;;;;;;5091322;28;20048;-69
2023/03/01 05:05:14;;;;;;;41.35;23.65;;;128.50;2252.80;;;;;;5091074;28;20024;-71
2023/03/01 05:07:40;;;;;;;49.72;27.83;;;128.40;2252.80;;;;;;5091619;28;20036;-71
2023/03/01 05:10:06;;;;;;;52.38;29.35;;;128.40;2252.80;;;;;;5091080;28;20031;-69
2023/03/01 05:12:32;;;;;;;50.50;28.80;;;128.40;2252.80;;;;;;5090880;28;20115;-75
2023/03/01 05:14:58;;;;;;;40.80;24.77;;;128.40;2252.80;;;;;;5090903;28;20099;-68
2023/03/01 05:17:24;;;;;;;42.92;26.77;;;128.40;2252.80;;;;;;5091005;28;20032;-68
2023/03/01 05:19:50;;;;;;;42.80;25.73;;;128.30;2252.80;;;;;;5090474;28;20023;-68
2023/03/01 05:22:16;;;;;;;61.92;31.77;;;128.30;2252.80;;;;;;5090834;28;20028;-68
2023/03/01 05:24:46;;;;;;;48.90;26.38;;;128.40;2252.80;;;;;;5091190;28;20036;-66
2023/03/01 05:27:12;;;;;;;48.88;27.52;;;128.40;2252.80;;;;;;5090891;28;20020;-67
2023/03/01 05:29:39;;;;;;;44.78;26.50;;;128.30;2252.80;;;;;;5090987;28;20039;-68
2023/03/01 05:32:04;;;;;;;46.92;27.33;;;128.40;2252.80;;;;;;5090211;28;20436;-68
2023/03/01 05:34:32;;;;;;;41.10;23.52;;;128.40;2252.80;;;;;;5090690;28;20034;-68
2023/03/01 05:36:59;;;;;;;56.50;31.52;;;128.00;2252.80;;;;;;5073985;28;20517;-74
2023/03/01 05:39:27;;;;;;;54.25;29.60;;;128.00;2252.80;;;;;;5088939;28;20032;-69
2023/03/01 05:41:55;;;;;;;49.00;27.38;;;128.20;2252.80;;;;;;5090431;28;20035;-69
2023/03/01 05:44:21;;;;;;;97.20;51.38;;;128.20;2252.80;;;;;;5090452;28;20058;-70
2023/03/01 05:46:47;;;;;;;118.47;66.15;;;128.30;2252.80;;;;;;5090526;28;20063;-69
2023/03/01 05:49:15;;;;;;;129.40;69.13;;;128.40;2252.80;;;;;;5083195;28;20086;-72
2023/03/01 05:51:42;;;;;;;123.78;60.00;;;128.50;2252.80;;;;;;5084478;28;20049;-70
2023/03/01 05:54:09;;;;;;;92.18;49.35;;;128.50;2252.80;;;;;;5077372;28;20031;-74
2023/03/01 05:56:36;;;;;;;71.38;41.80;;;128.30;2252.80;;;;;;5068212;28;20025;-74
2023/03/01 05:59:03;;;;;;;70.78;39.80;;;128.30;2252.80;;;;;;5079932;28;20027;-68
2023/03/01 06:01:29;;;;;;;70.63;42.17;;;128.40;2252.80;;;;;;5089647;28;20048;-76
2023/03/01 06:03:55;;;;;;;90.18;50.47;;;128.40;2252.80;;;;;;5090234;28;20040;-70
2023/03/01 06:06:21;;;;;;;82.45;43.72;;;128.40;2252.80;;;;;;5090044;28;20020;-69
2023/03/01 06:08:47;;;;;;;59.08;35.03;;;128.40;2252.80;;;;;;5089572;28;20027;-76
2023/03/01 06:11:13;;;;;;;56.40;32.50;;;128.20;2252.80;;;;;;5089650;28;20089;-76
2023/03/01 06:13:38;;;;;;;52.65;31.40;;;128.40;2252.80;;;;;;5089888;28;20031;-67
2023/03/01 06:16:06;;;;;;;71.70;42.80;;;128.20;2252.80;;;;;;5072679;28;20190;-68
2023/03/01 06:18:32;;;;;;;66.32;39.35;;;128.20;2252.80;;;;;;5069422;28;20020;-67
2023/03/01 06:20:57;;;;;;;71.07;43.08;;;128.50;2252.80;;;;;;5069188;28;20100;-69
2023/03/01 06:23:24;;;;;;;75.53;45.35;;;128.70;2252.80;;;;;;5069079;28;20550;-73
2023/03/01 06:25:50;;;;;;;64.03;42.33;;;128.70;2252.80;;;;;;5069146;28;20009;-70
2023/03/01 06:28:15;;;;;;;113.78;63.33;;;128.70;2252.80;;;;;;5069023;28;20035;-70
2023/03/01 06:30:41;;;;;;;127.60;71.53;;;128.60;2252.80;;;;;;5070284;28;20040;-69
2023/03/01 06:33:07;;;;;;;85.72;50.38;;;128.90;2252.80;;;;;;5089065;28;20036;-71
2023/03/01 06:35:33;;;;;;;81.32;50.17;;;128.90;2252.80;;;;;;5089191;28;20031;-74
2023/03/01 06:38:01;;;;;;;98.95;54.35;;;128.90;2252.80;;;;;;5075384;28;20043;-71
2023/03/01 06:40:27;;;;;;;107.43;67.32;;;153.60;2252.80;;;;;;5079267;28;20498;-63
2023/03/01 06:42:53;;;;;;;124.10;74.75;;;153.70;2252.80;;;;;;5074661;28;20051;-68
2023/03/01 06:45:20;;;;;;;98.57;57.42;;;128.90;2252.80;;;;;;5089436;28;20470;-66
2023/03/01 06:47:46;;;;;;;101.00;57.53;;;128.40;2252.80;;;;;;5089239;28;20028;-66
2023/03/01 06:50:12;;;;;;;97.35;57.13;;;128.40;2252.80;;;;;;5090501;28;20067;-67
2023/03/01 06:52:38;;;;;;;84.13;53.58;;;128.50;2252.80;;;;;;5093370;28;20505;-62
2023/03/01 06:55:05;;;;;;;86.53;54.15;;;128.60;2252.80;;;;;;5093997;28;20098;-66
2023/03/01 06:57:30;;;;;;;80.93;45.15;;;128.80;2252.80;;;;;;5093830;28;20066;-67
2023/03/01 06:59:56;;;;;;;190.82;108.93;;;128.80;2252.80;;;;;;5080932;28;20466;-67
2023/03/01 07:02:22;;;;;;;174.50;105.53;;;128.50;2252.80;;;;;;5091656;28;20133;-66
2023/03/01 07:04:52;;;;;;;137.02;81.60;;;128.70;2252.80;;;;;;5093482;28;20028;-66
2023/03/01 07:07:18;;;;;;;124.15;65.18;;;128.80;2252.80;;;;;;5093059;28;20028;-62
2023/03/01 07:09:48;;;;;;;101.97;57.03;;;128.90;2252.80;;;;;;5093641;28;20415;-67
2023/03/01 07:12:14;;;;;;;119.80;70.47;;;128.90;2252.80;;;;;;5093221;28;20061;-67
2023/03/01 07:14:39;;;;;;;144.82;81.75;;;153.60;2252.80;;;;;;5093535;28;20032;-67
2023/03/01 07:17:05;;;;;;;124.20;76.10;;;153.70;2252.80;;;;;;5087353;28;20027;-64
2023/03/01 07:19:31;;;;;;;125.47;77.40;;;153.70;2252.80;;;;;;5085654;28;20028;-62
2023/03/01 07:21:56;;;;;;;131.05;77.97;;;153.80;2252.80;;;;;;5092861;28;20454;-65
2023/03/01 07:24:22;;;;;;;135.32;79.63;;;128.90;2252.80;;;;;;5093397;28;20028;-63
2023/03/01 07:26:50;;;;;;;132.93;88.75;;;128.80;2252.80;;;;;;5093183;28;20392;-65
2023/03/01 07:29:16;;;;;;;142.48;89.53;;;128.90;2252.80;;;;;;5093065;28;20067;-65
2023/03/01 07:31:41;;;;;;;100.95;57.35;;;128.90;2252.80;;;;;;5083387;28;20064;-66
2023/03/01 07:34:07;;;;;;;144.13;84.95;;;128.70;2252.80;;;;;;5088863;28;20471;-66
2023/03/01 07:36:33;;;;;;;86.68;48.28;;;153.70;2252.80;;;;;;5092886;28;20111;-67
2023/03/01 07:39:00;;;;;;;72.60;50.80;;;153.80;2252.80;;;;;;5090092;28;20056;-65
2023/03/01 07:41:26;;;;;;;65.05;37.72;;;128.90;2252.80;;;;;;5082139;28;20024;-68
2023/03/01 07:43:51;;;;;;;65.35;45.90;;;153.80;2252.80;;;;;;5092978;28;20032;-67
2023/03/01 07:46:18;;;;;;;88.32;52.95;;;153.60;2252.80;;;;;;5093004;28;20103;-64
2023/03/01 07:48:44;;;;;;;90.47;62.28;;;153.70;2252.80;;;;;;5093025;28;20027;-62
2023/03/01 07:51:10;;;;;;;121.93;74.15;;;128.90;2252.80;;;;;;5092829;28;20028;-63
2023/03/01 07:53:36;;;;;;;65.28;43.42;;;153.80;2252.80;;;;;;5092791;28;20028;-65
2023/03/01 07:56:05;;;;;;;91.07;58.35;;;153.80;2252.80;;;;;;5092811;28;20126;-66
2023/03/01 07:58:33;;;;;;;80.80;47.92;;;153.60;2252.80;;;;;;5092624;28;20501;-67
2023/03/01 08:01:04;;;;;;;69.75;42.22;;;153.70;2252.80;;;;;;5092330;28;20024;-62
2023/03/01 08:03:30;;;;;;;70.53;47.45;;;153.60;2252.80;;;;;;5086837;28;20040;-63
2023/03/01 08:05:58;;;;;;;72.45;44.55;;;153.90;2252.80;;;;;;5082859;28;20058;-66
2023/03/01 08:08:24;;;;;;;86.13;55.00;;;154.00;2252.80;;;;;;5070217;28;20029;-66
2023/03/01 08:10:50;;;;;;;100.50;60.85;;;153.80;2252.80;;;;;;5062445;28;20025;-65
2023/03/01 08:13:15;;;;;;;89.07;57.72;;;153.60;2252.80;;;;;;5069412;28;20035;-65
2023/03/01 08:15:41;;;;;;;124.13;82.18;;;153.70;2252.80;;;;;;5072563;28;20020;-62
2023/03/01 08:18:07;;;;;;;116.18;75.95;;;128.80;2252.80;;;;;;5064571;28;20832;-64
2023/03/01 08:20:33;;;;;;;123.55;80.05;;;153.60;2252.80;;;;;;5075973;28;20047;-63
2023/03/01 08:22:58;;;;;;;112.03;71.85;;;128.80;2252.80;;;;;;5073232;28;20028;-62
2023/03/01 08:25:24;;;;;;;97.32;61.78;;;128.90;2252.80;;;;;;5074371;28;20067;-66
2023/03/01 08:27:49;;;;;;;85.45;56.10;;;153.90;2252.80;;;;;;5080363;28;20537;-66
2023/03/01 08:30:15;;;;;;;103.13;69.32;;;154.00;2252.80;;;;;;5091843;28;20032;-63
2023/03/01 08:32:41;;;;;;;73.18;45.67;;;153.70;2252.80;;;;;;5091995;28;20498;-63
2023/03/01 08:35:07;;;;;;;74.07;47.60;;;153.60;2252.80;;;;;;5091715;28;20024;-65
2023/03/01 08:37:33;;;;;;;70.72;51.25;;;153.80;2252.80;;;;;;5091906;28;20051;-65
2023/03/01 08:40:00;;;;;;;76.18;51.13;;;154.20;2252.80;;;;;;5091885;28;20070;-65
2023/03/01 08:42:26;;;;;;;61.28;39.10;;;154.10;2252.80;;;;;;5091731;28;20036;-63
2023/03/01 08:44:52;;;;;;;89.80;58.63;;;153.90;2252.80;;;;;;5091896;28;20020;-62
2023/03/01 08:47:17;;;;;;;82.03;47.70;;;128.80;2252.80;;;;;;5091387;28;20120;-66
2023/03/01 08:49:43;;;;;;;102.18;65.68;;;128.90;2252.80;;;;;;5091854;28;20027;-63
2023/03/01 08:52:09;;;;;;;99.72;57.10;;;153.60;2252.80;;;;;;5091444;28;20382;-63
2023/03/01 08:54:34;;;;;;;60.20;36.55;;;153.60;2252.80;;;;;;5091561;28;20068;-66
2023/03/01 08:57:03;;;;;;;63.00;39.85;;;154.00;2252.80;;;;;;5091876;28;20020;-62
2023/03/01 08:59:29;;;;;;;71.68;42.00;;;154.00;2252.80;;;;;;5091601;28;20031;-66
2023/03/01 09:01:55;;;;;;;86.18;51.25;;;153.90;2252.80;;;;;;5091006;28;20016;-63
2023/03/01 09:04:21;;;;;;;56.67;37.67;;;153.80;2252.80;;;;;;5091604;28;20051;-64
2023/03/01 09:06:48;;;;;;;66.85;42.90;;;154.00;2252.80;;;;;;5091024;28;20028;-66
2023/03/01 09:09:16;;;;;;;53.55;36.58;;;154.40;2252.80;;;;;;5091469;28;20032;-65
2023/03/01 09:11:43;;;;;;;58.08;35.97;;;154.40;2252.80;;;;;;5091164;28;20052;-66
2023/03/01 09:14:09;;;;;;;174.40;107.90;;;179.20;2252.80;;;;;;5090945;28;20477;-65
2023/03/01 09:16:37;;;;;;;77.80;43.10;;;179.70;2252.80;;;;;;5091370;28;20110;-63
2023/03/01 09:19:04;;;;;;;68.85;39.50;;;180.00;2252.80;;;;;;5091308;28;20016;-63
2023/03/01 09:21:29;;;;;;;64.80;41.30;;;180.10;2252.80;;;;;;5090623;28;20028;-66
2023/03/01 09:23:57;;;;;;;55.20;36.65;;;204.80;2252.80;;;;;;5091044;28;20474;-65
2023/03/01 09:26:23;;;;;;;61.78;37.78;;;180.00;2252.80;;;;;;5091199;28;20028;-67
2023/03/01 09:28:50;;;;;;;65.90;44.00;;;179.80;2252.80;;;;;;5090799;28;20359;-65
2023/03/01 09:31:18;;;;;;;72.18;45.85;;;179.50;2252.80;;;;;;5090603;28;20048;-63
2023/03/01 09:33:47;;;;;;;95.82;60.22;;;179.60;2252.80;;;;;;5091205;28;20031;-63
2023/03/01 09:36:18;;;;;;;74.63;44.67;;;179.50;2252.80;;;;;;5064053;28;20027;-66
2023/03/01 09:38:44;;;;;;;87.95;55.47;;;179.70;2252.80;;;;;;5090439;28;20031;-65
2023/03/01 09:41:32;;;;;;;135.73;81.90;;;180.10;2252.80;;;;;;5090795;28;20016;-66
2023/03/01 09:44:21;;;;;;;129.20;80.78;;;179.60;2252.80;;;;;;5089915;28;20111;-63
2023/03/01 09:46:47;;;;;;;86.30;52.78;;;179.70;2252.80;;;;;;5090337;28;20088;-65
2023/03/01 09:49:20;;;;;;;85.97;51.60;;;179.60;2252.80;;;;;;5090800;28;20412;-62
2023/03/01 09:52:20;;;;;;;93.90;58.22;;;179.30;2252.80;;;;;;5088923;28;20114;-64
2023/03/01 09:54:48;;;;;;;75.53;45.45;;;179.60;2252.80;;;;;;4997507;28;20069;-66
2023/03/01 09:57:29;;;;;;;72.53;45.67;;;179.80;2252.80;;;;;;5008170;28;20157;-63
2023/03/01 10:00:07;;;;;;;88.43;57.13;;;179.80;2252.80;;;;;;5007560;28;20042;-63
2023/03/01 10:02:49;;;;;;;88.05;53.10;;;179.70;2252.80;;;;;;5007864;28;20026;-61
2023/03/01 10:05:29;;;;;;;115.47;69.75;;;179.20;2252.80;;;;;;5007492;28;20037;-67
2023/03/01 10:08:19;;;;;;;107.57;66.60;;;179.50;2252.80;;;;;;5007757;28;20104;-67
2023/03/01 10:10:48;;;;;;;113.38;72.63;;;179.60;2252.80;;;;;;5007537;28;20026;-65
2023/03/01 10:13:23;;;;;;;102.90;64.35;;;179.60;2252.80;;;;;;5007502;28;20041;-63
2023/03/01 10:16:12;;;;;;;136.35;92.85;;;179.50;2252.80;;;;;;5006967;28;20036;-68
2023/03/01 10:18:40;;;;;;;155.82;98.85;;;179.80;2252.80;;;;;;5006783;28;20037;-63
2023/03/01 10:21:16;;;;;;;134.63;88.22;;;180.10;2252.80;;;;;;5007522;28;20482;-63
2023/03/01 10:23:42;;;;;;;105.05;63.58;;;180.00;2252.80;;;;;;4990083;28;20042;-66
2023/03/01 10:26:32;;;;;;;90.20;54.70;;;180.00;2252.80;;;;;;4987434;28;20452;-63
2023/03/01 10:29:09;;;;;;;92.20;52.78;;;180.10;2252.80;;;;;;4986858;28;20084;-66
2023/03/01 10:31:48;;;;;;;96.47;60.83;;;204.80;2252.80;;;;;;5028626;28;20490;-66
2023/03/01 10:34:17;;;;;;;98.78;61.33;;;180.10;2252.80;;;;;;5084178;28;20025;-68
2023/03/01 10:36:44;;;;;;;79.53;52.00;;;180.10;2252.80;;;;;;5069048;28;20016;-66
2023/03/01 10:39:22;;;;;;;72.60;43.80;;;204.90;2252.80;;;;;;5068879;28;20085;-67
2023/03/01 10:42:01;;;;;;;77.25;44.95;;;179.80;2252.80;;;;;;5063742;28;20016;-67
2023/03/01 10:44:41;;;;;;;65.88;40.13;;;179.40;2252.80;;;;;;5087677;28;20513;-65
2023/03/01 10:47:24;;;;;;;74.75;46.80;;;180.00;2252.80;;;;;;5064562;28;20036;-66
2023/03/01 10:50:04;;;;;;;68.82;43.78;;;179.80;2252.80;;;;;;5071363;28;20482;-64
2023/03/01 10:52:30;;;;;;;69.32;40.08;;;180.10;2252.80;;;;;;5089196;28;20024;-67
2023/03/01 10:55:23;;;;;;;82.32;48.08;;;179.80;2252.80;;;;;;5077828;28;20024;-64
2023/03/01 10:57:50;;;;;;;87.45;55.17;;;179.80;2252.80;;;;;;5074526;28;20517;-63
2023/03/01 11:00:20;;;;;;;71.75;44.63;;;179.50;2252.80;;;;;;5069128;28;20029;-63
2023/03/01 11:03:11;;;;;;;88.07;60.15;;;179.70;2252.80;;;;;;5074071;28;20048;-63
2023/03/01 11:05:49;;;;;;;93.93;59.67;;;179.90;2252.80;;;;;;5068587;28;20092;-63
2023/03/01 11:08:15;;;;;;;83.53;56.35;;;179.90;2252.80;;;;;;5069230;28;20028;-63
2023/03/01 11:10:40;;;;;;;82.32;51.55;;;179.80;2252.80;;;;;;5085132;28;20376;-64
2023/03/01 11:13:18;;;;;;;118.30;80.97;;;179.90;2252.80;;;;;;5089277;28;20035;-65
2023/03/01 11:16:02;;;;;;;113.15;71.35;;;179.80;2252.80;;;;;;5089298;28;20054;-62
2023/03/01 11:18:30;;;;;;;111.95;67.97;;;180.10;2252.80;;;;;;5089338;28;20020;-63
2023/03/01 11:20:58;;;;;;;102.30;62.15;;;204.90;2252.80;;;;;;5089041;28;20525;-64
2023/03/01 11:23:27;;;;;;;87.78;60.20;;;204.90;2252.80;;;;;;5088898;28;20040;-67
2023/03/01 11:26:01;;;;;;;92.50;63.88;;;205.10;2252.80;;;;;;5089706;28;20094;-62
2023/03/01 11:28:29;;;;;;;70.90;47.78;;;205.40;2252.80;;;;;;5068297;28;20025;-64
2023/03/01 11:30:55;;;;;;;58.50;37.10;;;205.40;2252.80;;;;;;5071507;28;20436;-66
2023/03/01 11:33:46;;;;;;;57.13;39.05;;;204.90;2252.80;;;;;;5089354;28;20032;-67
2023/03/01 11:36:30;;;;;;;55.13;33.22;;;204.90;2252.80;;;;;;5072517;28;20104;-66
2023/03/01 11:39:03;;;;;;;49.08;31.58;;;205.10;2252.80;;;;;;5071948;28;20021;-64
2023/03/01 11:41:31;;;;;;;;;;;205.20;2252.80;;;;;;5072995;28;20075;-66
2023/03/01 11:44:05;;;;;;;64.10;41.13;;;205.30;2252.80;;;;;;5066147;28;19947;-67
2023/03/01 11:46:51;;;;;;;61.10;38.97;;;205.50;2252.80;;;;;;5092702;28;20039;-66
2023/03/01 11:49:58;;;;;;;67.63;42.95;;;205.50;2252.80;;;;;;5092629;28;20078;-66
2023/03/01 11:52:49;;;;;;;47.63;33.38;;;205.60;2252.80;;;;;;5003618;28;20045;-67
2023/03/01 11:55:18;;;;;;;42.38;29.17;;;205.60;2252.80;;;;;;5001698;28;20030;-62
2023/03/01 11:58:09;;;;;;;48.15;30.20;;;205.70;2252.80;;;;;;5010686;28;20519;-62
2023/03/01 12:00:46;;;;;;;46.67;32.33;;;205.70;2252.80;;;;;;5010341;28;20058;-62
2023/03/01 12:03:11;;;;;;;44.63;28.52;;;205.70;2252.80;;;;;;5010036;28;20496;-66
2023/03/01 12:05:49;;;;;;;51.53;33.63;;;230.40;2252.80;;;;;;5010154;28;20018;-66
2023/03/01 12:08:23;;;;;;;54.13;34.63;;;230.50;2252.80;;;;;;5010022;28;20112;-67